createdAt,value
2017-08-13T00:00:54.316Z,19.40
2017-08-13T00:03:21.753Z,20.03
2017-08-13T00:05:49.173Z,19.80
2017-08-13T00:08:17.373Z,18.77
2017-08-13T00:10:44.793Z,19.70
2017-08-13T00:13:13.040Z,20.17
2017-08-13T00:15:40.472Z,19.77
2017-08-13T00:18:07.897Z,21.20
2017-08-13T00:20:35.331Z,20.97
2017-08-13T00:23:02.739Z,19.33
2017-08-13T00:25:30.165Z,19.87
2017-08-13T00:27:57.600Z,19.57
2017-08-13T00:30:25.796Z,18.40
2017-08-13T00:32:53.213Z,19.13
2017-08-13T00:35:20.680Z,18.77
2017-08-13T00:37:48.116Z,18.80
2017-08-13T00:40:15.533Z,18.27
2017-08-13T00:42:42.961Z,18.90
2017-08-13T00:45:10.436Z,18.27
2017-08-13T00:47:37.872Z,18.27
2017-08-13T00:50:06.069Z,17.40
2017-08-13T00:52:33.496Z,17.00
2017-08-13T00:55:01.688Z,17.33
2017-08-13T00:57:29.112Z,17.20
2017-08-13T00:59:56.539Z,16.57
2017-08-13T01:02:24.790Z,15.63
2017-08-13T01:04:52.224Z,16.20
2017-08-13T01:07:19.682Z,15.83
2017-08-13T01:09:47.872Z,15.80
2017-08-13T01:12:15.296Z,16.43
2017-08-13T01:14:43.509Z,16.27
2017-08-13T01:17:10.920Z,15.17
2017-08-13T01:19:39.117Z,15.40
2017-08-13T01:22:06.548Z,15.43
2017-08-13T01:24:34.747Z,16.07
2017-08-13T01:27:02.188Z,15.83
2017-08-13T01:29:30.393Z,16.50
2017-08-13T01:31:57.808Z,15.23
2017-08-13T01:34:26.003Z,15.53
2017-08-13T01:36:53.466Z,14.33
2017-08-13T01:39:20.892Z,14.80
2017-08-13T01:41:49.092Z,14.13
2017-08-13T01:44:16.521Z,14.27
2017-08-13T01:46:44.043Z,12.83
2017-08-13T01:49:11.466Z,12.67
2017-08-13T01:51:38.908Z,12.57
2017-08-13T01:54:07.092Z,12.07
2017-08-13T01:56:34.530Z,12.30
2017-08-13T01:59:02.749Z,10.90
2017-08-13T02:01:30.186Z,10.73
2017-08-13T02:03:57.616Z,11.07
2017-08-13T02:06:25.058Z,9.80
2017-08-13T02:08:52.468Z,9.40
2017-08-13T02:11:19.897Z,9.07
2017-08-13T02:13:47.338Z,9.73
2017-08-13T02:16:15.533Z,8.60
2017-08-13T02:18:42.988Z,7.90
2017-08-13T02:21:11.160Z,7.90
2017-08-13T02:23:38.602Z,7.93
2017-08-13T02:26:06.033Z,7.37
2017-08-13T02:28:33.461Z,6.50
2017-08-13T02:31:00.881Z,6.90
2017-08-13T02:33:28.312Z,7.00
2017-08-13T02:35:55.744Z,6.57
2017-08-13T02:38:23.178Z,6.90
2017-08-13T02:40:50.609Z,6.90
2017-08-13T02:43:18.040Z,6.77
2017-08-13T02:45:45.465Z,7.13
2017-08-13T02:48:12.876Z,7.37
2017-08-13T02:50:40.309Z,7.27
2017-08-13T02:53:08.513Z,9.20
2017-08-13T02:55:35.941Z,7.50
2017-08-13T02:58:04.133Z,8.80
2017-08-13T03:00:31.564Z,8.10
2017-08-13T03:02:59.761Z,8.37
2017-08-13T03:05:27.210Z,9.63
2017-08-13T03:07:54.632Z,9.33
2017-08-13T03:10:22.060Z,9.70
2017-08-13T03:12:49.520Z,10.03
2017-08-13T03:15:16.949Z,9.63
2017-08-13T03:17:44.391Z,9.63
2017-08-13T03:20:11.819Z,10.40
2017-08-13T03:22:40.041Z,9.70
2017-08-13T03:25:07.490Z,10.60
2017-08-13T03:27:34.995Z,10.07
2017-08-13T03:30:02.449Z,10.57
2017-08-13T03:32:29.868Z,10.60
2017-08-13T03:34:57.398Z,10.33
2017-08-13T03:37:24.809Z,10.67
2017-08-13T03:39:52.236Z,10.40
2017-08-13T03:42:20.427Z,9.87
2017-08-13T03:44:47.854Z,10.63
2017-08-13T03:47:16.048Z,10.87
2017-08-13T03:49:43.484Z,12.63
2017-08-13T03:52:11.673Z,14.73
2017-08-13T03:54:39.116Z,14.00
2017-08-13T03:57:07.339Z,16.47
2017-08-13T03:59:34.764Z,17.40
2017-08-13T04:02:02.264Z,15.90
2017-08-13T04:04:29.708Z,14.43
2017-08-13T04:06:57.129Z,14.43
2017-08-13T04:09:24.556Z,12.90
2017-08-13T04:11:52.000Z,12.70
2017-08-13T04:14:19.420Z,12.70
2017-08-13T04:16:46.859Z,12.50
2017-08-13T04:19:14.317Z,11.37
2017-08-13T04:21:41.755Z,11.60
2017-08-13T04:24:09.196Z,11.87
2017-08-13T04:26:36.621Z,11.90
2017-08-13T04:29:04.045Z,11.77
2017-08-13T04:31:31.477Z,12.17
2017-08-13T04:33:59.696Z,11.07
2017-08-13T04:36:27.134Z,11.13
2017-08-13T04:38:54.549Z,10.20
2017-08-13T04:41:21.982Z,11.93
2017-08-13T04:43:49.398Z,11.10
2017-08-13T04:46:16.845Z,10.83
2017-08-13T04:48:44.274Z,10.50
2017-08-13T04:51:12.478Z,9.90
2017-08-13T04:53:39.909Z,10.97
2017-08-13T04:56:07.367Z,10.13
2017-08-13T04:58:34.789Z,9.80
2017-08-13T05:01:02.237Z,10.50
2017-08-13T05:03:29.660Z,8.33
2017-08-13T05:05:57.094Z,9.10
2017-08-13T05:08:24.516Z,8.70
2017-08-13T05:10:51.944Z,8.97
2017-08-13T05:13:20.136Z,9.20
2017-08-13T05:15:47.583Z,8.90
2017-08-13T05:18:15.035Z,9.53
2017-08-13T05:20:42.475Z,9.50
2017-08-13T05:23:09.904Z,8.80
2017-08-13T05:25:37.331Z,8.60
2017-08-13T05:28:04.757Z,8.40
2017-08-13T05:30:32.169Z,8.40
2017-08-13T05:32:59.601Z,8.80
2017-08-13T05:35:27.024Z,8.37
2017-08-13T05:37:54.441Z,8.20
2017-08-13T05:40:21.876Z,8.67
2017-08-13T05:42:49.323Z,8.33
2017-08-13T05:45:16.805Z,8.20
2017-08-13T05:47:44.233Z,7.10
2017-08-13T05:50:11.660Z,7.70
2017-08-13T05:52:39.076Z,7.10
2017-08-13T05:55:06.574Z,7.70
2017-08-13T05:57:33.997Z,7.13
2017-08-13T06:00:01.424Z,6.73
2017-08-13T06:02:29.660Z,6.53
2017-08-13T06:04:57.125Z,6.00
2017-08-13T06:07:24.557Z,6.30
2017-08-13T06:09:51.988Z,6.40
2017-08-13T06:12:19.400Z,6.13
2017-08-13T06:14:46.851Z,5.57
2017-08-13T06:17:14.260Z,5.03
2017-08-13T06:19:41.689Z,5.83
2017-08-13T06:22:09.886Z,4.83
2017-08-13T06:24:37.317Z,4.93
2017-08-13T06:27:05.549Z,4.13
2017-08-13T06:29:32.989Z,4.57
2017-08-13T06:32:00.405Z,4.20
2017-08-13T06:34:28.605Z,4.60
2017-08-13T06:36:56.092Z,4.70
2017-08-13T06:39:23.532Z,4.03
2017-08-13T06:41:50.992Z,3.90
2017-08-13T06:44:18.413Z,3.37
2017-08-13T06:46:45.840Z,3.47
2017-08-13T06:49:13.260Z,3.77
2017-08-13T06:51:40.708Z,3.60
2017-08-13T06:54:08.118Z,3.43
2017-08-13T06:56:36.309Z,3.30
2017-08-13T06:59:03.734Z,3.07
2017-08-13T07:01:31.155Z,3.53
2017-08-13T07:03:58.577Z,3.30
2017-08-13T07:06:26.030Z,2.83
2017-08-13T07:08:54.224Z,3.50
2017-08-13T07:11:21.652Z,3.07
2017-08-13T07:13:49.862Z,3.30
2017-08-13T07:16:17.265Z,3.40
2017-08-13T07:18:44.703Z,3.30
2017-08-13T07:21:12.137Z,3.43
2017-08-13T07:23:39.582Z,3.40
2017-08-13T07:26:07.001Z,3.27
2017-08-13T07:28:35.217Z,3.13
2017-08-13T07:31:02.679Z,3.17
2017-08-13T07:33:30.125Z,3.60
2017-08-13T07:35:57.565Z,3.20
2017-08-13T07:38:24.984Z,3.50
2017-08-13T07:40:52.419Z,2.83
2017-08-13T07:43:19.847Z,3.10
2017-08-13T07:45:47.330Z,3.50
2017-08-13T07:48:14.760Z,2.97
2017-08-13T07:50:42.172Z,3.40
2017-08-13T07:53:10.391Z,3.20
2017-08-13T07:55:37.812Z,3.23
2017-08-13T07:58:06.024Z,2.97
2017-08-13T08:00:33.478Z,2.70
2017-08-13T08:03:00.885Z,2.90
2017-08-13T08:05:28.337Z,3.07
2017-08-13T08:07:55.749Z,2.97
2017-08-13T08:10:23.168Z,3.03
2017-08-13T08:12:50.614Z,3.30
2017-08-13T08:15:18.804Z,3.07
2017-08-13T08:17:46.221Z,2.63
2017-08-13T08:20:13.651Z,2.70
2017-08-13T08:22:41.068Z,2.70
2017-08-13T08:25:08.501Z,2.73
2017-08-13T08:27:35.912Z,2.67
2017-08-13T08:30:03.340Z,2.70
2017-08-13T08:32:30.820Z,2.60
2017-08-13T08:34:58.232Z,2.53
2017-08-13T08:37:26.432Z,2.40
2017-08-13T08:39:53.857Z,2.43
2017-08-13T08:42:21.283Z,2.73
2017-08-13T08:44:48.708Z,2.20
2017-08-13T08:47:16.128Z,2.10
2017-08-13T08:49:43.563Z,2.53
2017-08-13T08:52:10.991Z,1.83
2017-08-13T08:54:39.188Z,1.30
2017-08-13T08:57:06.607Z,1.60
2017-08-13T08:59:34.128Z,1.33
2017-08-13T09:02:01.540Z,1.47
2017-08-13T09:04:28.960Z,1.60
2017-08-13T09:06:56.393Z,1.50
2017-08-13T09:09:23.805Z,1.90
2017-08-13T09:11:51.234Z,2.50
2017-08-13T09:14:18.651Z,2.17
2017-08-13T09:16:46.086Z,2.50
2017-08-13T09:19:13.508Z,2.20
2017-08-13T09:21:41.708Z,1.97
2017-08-13T09:24:09.127Z,2.53
2017-08-13T09:26:37.335Z,2.20
2017-08-13T09:29:04.740Z,1.80
2017-08-13T09:31:32.174Z,1.30
2017-08-13T09:33:59.600Z,1.60
2017-08-13T09:36:27.090Z,1.60
2017-08-13T09:38:54.513Z,1.40
2017-08-13T09:41:21.945Z,1.50
2017-08-13T09:43:50.142Z,1.50
2017-08-13T09:46:17.556Z,1.50
2017-08-13T09:48:44.980Z,1.97
2017-08-13T09:51:12.395Z,1.20
2017-08-13T09:53:40.617Z,1.63
2017-08-13T09:56:08.021Z,1.40
2017-08-13T09:58:36.222Z,1.50
2017-08-13T10:01:03.641Z,1.90
2017-08-13T10:03:31.868Z,2.40
2017-08-13T10:05:59.284Z,2.10
2017-08-13T10:08:26.700Z,1.90
2017-08-13T10:10:54.125Z,2.17
2017-08-13T10:13:21.544Z,1.50
2017-08-13T10:15:48.963Z,2.10
2017-08-13T10:18:16.385Z,1.70
2017-08-13T10:20:43.860Z,1.70
2017-08-13T10:23:11.294Z,1.40
2017-08-13T10:25:38.701Z,1.50
2017-08-13T10:28:06.130Z,1.20
2017-08-13T10:30:33.562Z,1.57
2017-08-13T10:33:00.976Z,1.40
2017-08-13T10:35:29.197Z,1.30
2017-08-13T10:37:56.649Z,1.43
2017-08-13T10:40:24.061Z,1.20
2017-08-13T10:42:52.240Z,1.40
2017-08-13T10:45:19.664Z,1.30
2017-08-13T10:47:47.096Z,1.30
2017-08-13T10:50:14.521Z,1.30
2017-08-13T10:52:42.017Z,1.90
2017-08-13T10:55:09.436Z,1.40
2017-08-13T10:57:36.863Z,1.70
2017-08-13T11:00:04.291Z,1.30
2017-08-13T11:02:31.704Z,1.70
2017-08-13T11:04:59.137Z,1.60
2017-08-13T11:07:27.343Z,1.47
2017-08-13T11:09:54.824Z,1.40
2017-08-13T11:12:22.273Z,1.40
2017-08-13T11:14:49.699Z,1.40
2017-08-13T11:17:17.109Z,1.43
2017-08-13T11:19:44.535Z,1.43
2017-08-13T11:22:11.955Z,1.50
2017-08-13T11:24:40.136Z,1.60
2017-08-13T11:27:07.557Z,1.37
2017-08-13T11:29:34.989Z,1.50
2017-08-13T11:32:02.413Z,1.90
2017-08-13T11:34:29.828Z,1.80
2017-08-13T11:36:57.249Z,1.60
2017-08-13T11:39:24.674Z,1.67
2017-08-13T11:41:52.092Z,1.90
2017-08-13T11:44:19.516Z,2.10
2017-08-13T11:46:46.940Z,1.50
2017-08-13T11:49:14.373Z,1.70
2017-08-13T11:51:41.796Z,1.80
2017-08-13T11:54:09.223Z,1.73
2017-08-13T11:56:36.697Z,1.40
2017-08-13T11:59:04.121Z,1.50
2017-08-13T12:01:31.718Z,1.60
2017-08-13T12:03:59.124Z,1.70
2017-08-13T12:06:26.552Z,1.63
2017-08-13T12:08:53.985Z,1.40
2017-08-13T12:11:21.406Z,1.43
2017-08-13T12:13:48.821Z,1.50
2017-08-13T12:16:16.300Z,1.60
2017-08-13T12:18:43.716Z,1.40
2017-08-13T12:21:11.170Z,1.20
2017-08-13T12:23:38.572Z,1.30
2017-08-13T12:26:06.008Z,1.23
2017-08-13T12:28:33.449Z,1.30
2017-08-13T12:31:00.869Z,1.37
2017-08-13T12:33:28.287Z,1.50
2017-08-13T12:35:56.477Z,1.40
2017-08-13T12:38:23.900Z,1.50
2017-08-13T12:40:51.333Z,1.80
2017-08-13T12:43:18.760Z,1.67
2017-08-13T12:45:46.199Z,1.57
2017-08-13T12:48:14.361Z,1.80
2017-08-13T12:50:42.716Z,1.77
2017-08-13T12:53:10.229Z,1.90
2017-08-13T12:55:37.677Z,2.10
2017-08-13T12:58:05.088Z,1.70
2017-08-13T13:00:33.273Z,1.97
2017-08-13T13:03:00.692Z,1.93
2017-08-13T13:05:28.119Z,2.00
2017-08-13T13:07:55.553Z,1.90
2017-08-13T13:10:23.724Z,1.90
2017-08-13T13:12:51.164Z,2.13
2017-08-13T13:15:19.340Z,2.00
2017-08-13T13:17:47.527Z,1.90
2017-08-13T13:20:15.719Z,2.17
2017-08-13T13:22:43.148Z,2.10
2017-08-13T13:25:10.568Z,2.50
2017-08-13T13:27:37.998Z,2.40
2017-08-13T13:30:05.438Z,2.40
2017-08-13T13:32:32.868Z,2.53
2017-08-13T13:35:01.051Z,2.93
2017-08-13T13:37:28.472Z,2.60
2017-08-13T13:39:55.897Z,3.20
2017-08-13T13:42:23.317Z,2.73
2017-08-13T13:44:50.741Z,3.47
2017-08-13T13:47:18.160Z,3.00
2017-08-13T13:49:45.575Z,3.27
2017-08-13T13:52:13.757Z,3.30
2017-08-13T13:54:41.188Z,3.30
2017-08-13T13:57:09.377Z,2.97
2017-08-13T13:59:37.581Z,3.00
2017-08-13T14:02:05.001Z,2.90
2017-08-13T14:04:33.220Z,2.83
2017-08-13T14:07:00.640Z,3.20
2017-08-13T14:09:28.066Z,3.17
2017-08-13T14:11:55.479Z,3.53
2017-08-13T14:14:22.905Z,3.00
2017-08-13T14:16:51.081Z,3.13
2017-08-13T14:19:18.566Z,3.20
2017-08-13T14:21:45.993Z,3.27
2017-08-13T14:24:14.164Z,3.10
2017-08-13T14:26:41.596Z,3.00
2017-08-13T14:29:09.021Z,3.00
2017-08-13T14:31:36.433Z,2.93
2017-08-13T14:34:03.865Z,3.70
2017-08-13T14:36:32.052Z,2.73
2017-08-13T14:39:00.241Z,2.83
2017-08-13T14:41:27.681Z,3.57
2017-08-13T14:43:55.861Z,3.13
2017-08-13T14:46:23.296Z,3.77
2017-08-13T14:48:50.727Z,3.03
2017-08-13T14:51:18.132Z,3.23
2017-08-13T14:53:45.600Z,3.77
2017-08-13T14:56:13.052Z,3.57
2017-08-13T14:58:40.508Z,3.50
2017-08-13T15:01:07.934Z,4.30
2017-08-13T15:03:35.349Z,3.37
2017-08-13T15:06:02.768Z,3.30
2017-08-13T15:08:30.225Z,3.87
2017-08-13T15:10:57.664Z,3.13
2017-08-13T15:13:25.084Z,3.10
2017-08-13T15:15:52.518Z,3.40
2017-08-13T15:20:53.779Z,3.53
2017-08-13T15:23:22.024Z,3.27
2017-08-13T15:25:49.451Z,3.47
2017-08-13T15:28:17.657Z,4.00
2017-08-13T15:30:45.092Z,3.90
2017-08-13T15:33:13.273Z,4.30
2017-08-13T15:35:40.741Z,3.40
2017-08-13T15:38:08.133Z,3.47
2017-08-13T15:40:35.556Z,3.70
2017-08-13T15:43:02.996Z,3.97
2017-08-13T15:45:30.476Z,4.37
2017-08-13T15:47:57.942Z,3.97
2017-08-13T15:50:25.382Z,3.70
2017-08-13T15:52:52.835Z,4.10
2017-08-13T15:55:20.252Z,4.80
2017-08-13T15:57:48.453Z,4.50
2017-08-13T16:00:16.026Z,4.13
2017-08-13T16:02:43.444Z,4.20
2017-08-13T16:05:10.868Z,4.47
2017-08-13T16:07:38.280Z,4.43
2017-08-13T16:10:05.699Z,4.13
2017-08-13T16:12:33.885Z,3.70
2017-08-13T16:15:01.308Z,3.97
2017-08-13T16:17:28.772Z,4.13
2017-08-13T16:19:56.202Z,4.40
2017-08-13T16:22:23.667Z,3.73
2017-08-13T16:24:51.101Z,4.17
2017-08-13T16:27:18.528Z,4.37
2017-08-13T16:29:45.973Z,5.00
2017-08-13T16:32:14.156Z,4.70
2017-08-13T16:34:41.580Z,4.17
2017-08-13T16:37:09.001Z,4.33
2017-08-13T16:39:36.456Z,3.27
2017-08-13T16:42:03.887Z,3.63
2017-08-13T16:44:31.304Z,3.77
2017-08-13T16:46:58.762Z,3.60
2017-08-13T16:49:26.196Z,3.70
2017-08-13T16:51:53.621Z,3.27
2017-08-13T16:54:21.031Z,3.63
2017-08-13T16:56:48.455Z,3.50
2017-08-13T16:59:15.872Z,3.63
2017-08-13T17:01:43.303Z,3.20
2017-08-13T17:04:11.482Z,3.30
2017-08-13T17:06:39.665Z,3.13
2017-08-13T17:09:07.156Z,3.03
2017-08-13T17:11:34.557Z,3.17
2017-08-13T17:14:02.757Z,2.80
2017-08-13T17:16:30.192Z,3.13
2017-08-13T17:18:58.384Z,3.00
2017-08-13T17:21:25.809Z,3.10
2017-08-13T17:23:53.228Z,3.10
2017-08-13T17:26:20.652Z,2.63
2017-08-13T17:28:48.085Z,3.57
2017-08-13T17:31:15.501Z,3.60
2017-08-13T17:33:42.928Z,2.77
2017-08-13T17:36:10.341Z,3.37
2017-08-13T17:38:37.840Z,2.40
2017-08-13T17:41:05.268Z,2.30
2017-08-13T17:43:32.684Z,2.73
2017-08-13T17:46:00.124Z,2.60
2017-08-13T17:48:27.532Z,2.60
2017-08-13T17:50:55.733Z,3.37
2017-08-13T17:53:23.900Z,2.20
2017-08-13T17:55:51.323Z,2.70
2017-08-13T17:58:18.756Z,3.03
2017-08-13T18:00:46.185Z,2.73
2017-08-13T18:03:13.672Z,2.40
2017-08-13T18:05:41.120Z,2.30
2017-08-13T18:08:09.315Z,2.70
2017-08-13T18:10:36.751Z,2.47
2017-08-13T18:13:04.163Z,2.43
2017-08-13T18:15:31.589Z,2.63
2017-08-13T18:17:59.042Z,2.73
2017-08-13T18:20:26.477Z,2.40
2017-08-13T18:22:53.911Z,2.33
2017-08-13T18:25:21.333Z,2.83
2017-08-13T18:27:49.537Z,2.90
2017-08-13T18:30:16.969Z,2.90
2017-08-13T18:32:44.392Z,3.03
2017-08-13T18:35:11.829Z,2.90
2017-08-13T18:37:39.240Z,2.90
2017-08-13T18:40:06.714Z,4.50
2017-08-13T18:42:34.153Z,3.17
2017-08-13T18:45:01.580Z,3.23
2017-08-13T18:47:29.783Z,3.10
2017-08-13T18:49:57.197Z,3.80
2017-08-13T18:52:24.723Z,3.20
2017-08-13T18:54:52.164Z,3.20
2017-08-13T18:57:19.596Z,4.00
2017-08-13T18:59:47.770Z,4.03
2017-08-13T19:02:15.201Z,3.50
2017-08-13T19:04:42.638Z,3.13
2017-08-13T19:07:10.073Z,2.90
2017-08-13T19:09:37.492Z,2.97
2017-08-13T19:12:04.910Z,3.00
2017-08-13T19:14:32.333Z,3.23
2017-08-13T19:16:59.752Z,3.50
2017-08-13T19:19:27.944Z,3.33
2017-08-13T19:21:55.377Z,3.77
2017-08-13T19:24:23.577Z,3.60
2017-08-13T19:26:51.749Z,3.70
2017-08-13T19:29:19.182Z,3.97
2017-08-13T19:31:47.374Z,4.30
2017-08-13T19:34:14.796Z,5.90
2017-08-13T19:36:42.211Z,5.20
2017-08-13T19:39:09.668Z,4.80
2017-08-13T19:41:37.096Z,5.50
2017-08-13T19:44:04.526Z,4.70
2017-08-13T19:46:31.941Z,5.00
2017-08-13T19:48:59.368Z,5.23
2017-08-13T19:51:26.839Z,5.20
2017-08-13T19:53:54.246Z,5.27
2017-08-13T19:56:22.430Z,6.20
2017-08-13T19:58:50.628Z,5.80
2017-08-13T20:01:18.061Z,5.00
2017-08-13T20:03:45.508Z,5.80
2017-08-13T20:06:12.916Z,5.93
2017-08-13T20:08:40.344Z,6.53
2017-08-13T20:11:07.804Z,7.00
2017-08-13T20:13:35.284Z,6.20
2017-08-13T20:16:02.769Z,7.50
2017-08-13T20:18:30.401Z,7.77
2017-08-13T20:20:57.977Z,8.30
2017-08-13T20:23:25.531Z,7.67
2017-08-13T20:25:53.111Z,7.20
2017-08-13T20:28:20.618Z,7.67
2017-08-13T20:30:48.495Z,8.00
2017-08-13T20:33:15.925Z,7.63
2017-08-13T20:35:43.379Z,7.17
2017-08-13T20:38:10.924Z,7.87
2017-08-13T20:40:39.141Z,7.87
2017-08-13T20:43:06.622Z,7.50
2017-08-13T20:45:34.052Z,7.10
2017-08-13T20:50:54.496Z,8.80
2017-08-13T20:53:22.666Z,8.40
2017-08-13T20:55:50.089Z,6.90
2017-08-13T20:58:17.499Z,8.70
2017-08-13T21:00:44.915Z,7.40
2017-08-13T21:03:12.335Z,7.73
2017-08-13T21:05:39.747Z,8.87
2017-08-13T21:08:07.186Z,7.93
2017-08-13T21:10:34.601Z,7.43
2017-08-13T21:13:02.028Z,7.10
2017-08-13T21:15:30.020Z,7.90
2017-08-13T21:17:57.437Z,8.33
2017-08-13T21:20:25.623Z,8.63
2017-08-13T21:22:53.041Z,7.70
2017-08-13T21:25:20.454Z,8.07
2017-08-13T21:27:47.858Z,7.80
2017-08-13T21:30:15.365Z,8.30
2017-08-13T21:32:42.776Z,7.43
2017-08-13T21:35:10.192Z,7.20
2017-08-13T21:37:37.603Z,7.60
2017-08-13T21:40:05.784Z,7.27
2017-08-13T21:42:33.203Z,7.60
2017-08-13T21:45:00.715Z,7.60
2017-08-13T21:47:28.150Z,7.47
2017-08-13T21:49:56.332Z,7.93
2017-08-13T21:52:23.772Z,7.80
2017-08-13T21:54:51.953Z,10.30
2017-08-13T21:57:19.979Z,8.47
2017-08-13T21:59:47.406Z,8.70
2017-08-13T22:02:14.818Z,8.47
2017-08-13T22:04:43.028Z,7.90
2017-08-13T22:07:10.435Z,8.47
2017-08-13T22:09:37.851Z,8.37
2017-08-13T22:12:05.258Z,8.87
2017-08-13T22:14:33.274Z,8.80
2017-08-13T22:17:00.693Z,8.33
2017-08-13T22:19:28.107Z,8.70
2017-08-13T22:21:55.512Z,8.13
2017-08-13T22:24:22.985Z,9.40
2017-08-13T22:26:50.397Z,8.70
2017-08-13T22:29:18.577Z,8.67
2017-08-13T22:31:46.779Z,9.10
2017-08-13T22:34:14.241Z,8.10
2017-08-13T22:36:41.693Z,9.53
2017-08-13T22:39:09.121Z,8.93
2017-08-13T22:44:11.187Z,9.93
2017-08-13T22:46:39.403Z,8.17
2017-08-13T22:49:06.803Z,8.60
2017-08-13T22:51:34.223Z,8.40
2017-08-13T22:54:01.637Z,7.87
2017-08-13T22:56:29.808Z,8.90
2017-08-13T22:58:58.248Z,8.43
2017-08-13T23:01:25.679Z,9.50
2017-08-13T23:03:53.095Z,8.83
2017-08-13T23:06:21.278Z,8.40
2017-08-13T23:08:48.691Z,8.50
2017-08-13T23:11:16.140Z,8.90
2017-08-13T23:13:43.559Z,10.33
2017-08-13T23:16:10.966Z,9.60
2017-08-13T23:18:38.388Z,10.57
2017-08-13T23:21:05.957Z,11.17
2017-08-13T23:23:33.353Z,10.00
2017-08-13T23:26:00.767Z,10.20
2017-08-13T23:28:28.219Z,10.30
2017-08-13T23:30:55.635Z,9.77
2017-08-13T23:33:23.826Z,10.20
2017-08-13T23:35:51.232Z,9.77
2017-08-13T23:38:18.987Z,9.93
2017-08-13T23:40:46.403Z,10.77
2017-08-13T23:43:13.831Z,11.47
2017-08-13T23:45:41.246Z,12.07
2017-08-13T23:48:08.670Z,12.20
2017-08-13T23:50:36.068Z,11.77
2017-08-13T23:53:04.564Z,11.03
2017-08-13T23:55:32.087Z,10.27
2017-08-13T23:57:59.492Z,10.23
